createdAt,value
2022-10-17T00:01:06.859Z,8.02
2022-10-17T00:03:36.900Z,8.04
2022-10-17T00:06:10.599Z,8.05
2022-10-17T00:08:41.038Z,8.06
2022-10-17T00:11:15.638Z,8.10
2022-10-17T00:13:43.668Z,8.15
2022-10-17T00:16:11.679Z,8.18
2022-10-17T00:18:39.539Z,8.19
2022-10-17T00:21:15.559Z,8.20
2022-10-17T00:23:43.521Z,8.21
2022-10-17T00:26:11.402Z,8.22
2022-10-17T00:28:39.520Z,8.23
2022-10-17T00:31:08.159Z,8.22
2022-10-17T00:33:36.279Z,8.20
2022-10-17T00:36:12.751Z,8.16
2022-10-17T00:38:43.382Z,8.11
2022-10-17T00:41:13.714Z,8.07
2022-10-17T00:44:02.220Z,8.03
2022-10-17T00:46:36.930Z,7.96
2022-10-17T00:49:11.010Z,7.88
2022-10-17T00:51:45.243Z,7.83
2022-10-17T00:54:16.476Z,7.80
2022-10-17T00:56:46.966Z,7.75
2022-10-17T00:59:18.858Z,7.71
2022-10-17T01:01:54.302Z,7.65
2022-10-17T01:04:22.561Z,7.61
2022-10-17T01:06:50.473Z,7.55
2022-10-17T01:09:18.839Z,7.50
2022-10-17T01:11:58.961Z,7.46
2022-10-17T01:14:40.664Z,7.42
2022-10-17T01:17:47.621Z,7.36
2022-10-17T01:20:29.823Z,7.30
2022-10-17T01:23:16.615Z,7.25
2022-10-17T01:26:03.456Z,7.19
2022-10-17T01:28:57.097Z,7.12
2022-10-17T01:31:47.851Z,7.06
2022-10-17T01:34:32.595Z,7.00
2022-10-17T01:37:16.146Z,6.96
2022-10-17T01:39:49.580Z,6.91
2022-10-17T01:42:20.331Z,6.86
2022-10-17T01:45:00.313Z,6.83
2022-10-17T01:47:33.846Z,6.82
2022-10-17T01:50:18.868Z,6.81
2022-10-17T01:52:53.263Z,6.81
2022-10-17T01:55:38.249Z,6.82
2022-10-17T01:58:24.704Z,6.83
2022-10-17T02:02:07.366Z,6.86
2022-10-17T02:04:36.899Z,6.90
2022-10-17T02:07:13.409Z,6.94
2022-10-17T02:09:41.337Z,6.97
2022-10-17T02:12:21.465Z,7.02
2022-10-17T02:15:22.163Z,7.05
2022-10-17T02:18:15.965Z,7.10
2022-10-17T02:20:55.143Z,7.13
2022-10-17T02:23:41.403Z,7.15
2022-10-17T02:26:21.476Z,7.17
2022-10-17T02:28:59.038Z,7.17
2022-10-17T02:31:42.099Z,7.18
2022-10-17T02:34:19.962Z,7.18
2022-10-17T02:36:56.270Z,7.22
2022-10-17T02:39:27.746Z,7.23
2022-10-17T02:42:01.978Z,7.25
2022-10-17T02:44:32.584Z,7.28
2022-10-17T02:47:13.169Z,7.28
2022-10-17T02:49:48.700Z,7.26
2022-10-17T02:52:28.544Z,7.24
2022-10-17T02:55:05.010Z,7.22
2022-10-17T02:57:50.353Z,7.19
2022-10-17T03:00:19.985Z,7.15
2022-10-17T03:02:51.563Z,7.09
2022-10-17T03:05:22.829Z,7.04
2022-10-17T03:07:50.781Z,7.00
2022-10-17T03:10:19.309Z,6.95
2022-10-17T03:12:48.642Z,6.91
2022-10-17T03:15:16.901Z,6.86
2022-10-17T03:20:14.904Z,6.74
2022-10-17T03:22:42.973Z,6.67
2022-10-17T03:25:11.119Z,6.61
2022-10-17T03:27:39.111Z,6.57
2022-10-17T03:30:07.901Z,6.53
2022-10-17T03:32:36.562Z,6.48
2022-10-17T03:35:04.884Z,6.43
2022-10-17T03:37:33.088Z,6.38
2022-10-17T03:40:01.235Z,6.35
2022-10-17T03:42:32.387Z,6.31
2022-10-17T03:45:00.347Z,6.28
2022-10-17T03:47:29.587Z,6.26
2022-10-17T03:49:58.040Z,6.24
2022-10-17T03:52:26.298Z,6.23
2022-10-17T03:54:54.819Z,6.24
2022-10-17T03:57:22.698Z,6.25
2022-10-17T03:59:52.334Z,6.27
2022-10-17T04:02:21.116Z,6.31
2022-10-17T04:04:50.357Z,6.34
2022-10-17T04:07:18.392Z,6.36
2022-10-17T04:09:46.704Z,6.38
2022-10-17T04:12:19.553Z,6.40
2022-10-17T04:14:47.864Z,6.44
2022-10-17T04:17:15.836Z,6.47
2022-10-17T04:19:43.745Z,6.51
2022-10-17T04:22:11.732Z,6.55
2022-10-17T04:24:40.313Z,6.61
2022-10-17T04:27:19.778Z,6.68
2022-10-17T04:29:47.908Z,6.71
2022-10-17T04:32:18.535Z,6.74
2022-10-17T04:34:52.266Z,6.75
2022-10-17T04:37:21.544Z,6.75
2022-10-17T04:39:50.951Z,6.74
2022-10-17T04:42:18.780Z,6.75
2022-10-17T04:44:46.961Z,6.78
2022-10-17T04:47:16.055Z,6.78
2022-10-17T04:49:44.437Z,6.79
2022-10-17T04:52:12.436Z,6.80
2022-10-17T04:54:49.821Z,6.81
2022-10-17T04:57:19.950Z,6.80
2022-10-17T05:03:02.655Z,6.75
2022-10-17T05:05:37.642Z,6.71
2022-10-17T05:08:12.960Z,6.68
2022-10-17T05:10:44.047Z,6.65
2022-10-17T05:13:12.784Z,6.65
2022-10-17T05:15:41.532Z,6.65
2022-10-17T05:18:09.408Z,6.66
2022-10-17T05:20:37.590Z,6.67
2022-10-17T05:23:07.220Z,6.70
2022-10-17T05:25:38.253Z,6.74
2022-10-17T05:28:06.487Z,6.78
2022-10-17T05:30:37.575Z,6.82
2022-10-17T05:33:06.740Z,6.86
2022-10-17T05:35:34.834Z,6.91
2022-10-17T05:38:02.884Z,6.95
2022-10-17T05:40:31.584Z,7.01
2022-10-17T05:42:59.970Z,7.07
2022-10-17T05:45:27.928Z,7.14
2022-10-17T05:47:55.833Z,7.21
2022-10-17T05:50:25.255Z,7.26
2022-10-17T05:53:09.964Z,7.32
2022-10-17T05:55:41.685Z,7.39
2022-10-17T05:58:14.298Z,7.49
2022-10-17T06:00:50.926Z,7.62
2022-10-17T06:03:18.759Z,7.74
2022-10-17T06:05:47.559Z,7.87
2022-10-17T06:08:15.599Z,8.01
2022-10-17T06:10:43.495Z,8.14
2022-10-17T06:13:11.335Z,8.27
2022-10-17T06:15:39.109Z,8.44
2022-10-17T06:18:09.170Z,8.58
2022-10-17T06:20:37.599Z,8.70
2022-10-17T06:23:06.347Z,8.82
2022-10-17T06:25:52.542Z,8.97
2022-10-17T06:28:20.424Z,9.11
2022-10-17T06:30:48.247Z,9.21
2022-10-17T06:33:16.760Z,9.31
2022-10-17T06:35:50.711Z,9.46
2022-10-17T06:38:19.488Z,9.61
2022-10-17T06:40:47.665Z,9.82
2022-10-17T06:43:15.599Z,10.00
2022-10-17T06:46:19.796Z,10.09
2022-10-17T06:49:07.609Z,10.04
2022-10-17T06:51:55.790Z,10.00
2022-10-17T06:54:31.457Z,9.95
2022-10-17T06:57:08.763Z,9.89
2022-10-17T07:00:04.345Z,9.84
2022-10-17T07:02:39.077Z,9.80
2022-10-17T07:05:07.351Z,9.75
2022-10-17T07:07:38.926Z,9.74
2022-10-17T07:10:10.325Z,9.77
2022-10-17T07:12:38.641Z,9.85
2022-10-17T07:15:07.688Z,9.92
2022-10-17T07:17:35.483Z,9.98
2022-10-17T07:20:03.520Z,10.07
2022-10-17T07:22:33.732Z,10.18
2022-10-17T07:25:02.656Z,10.25
2022-10-17T07:27:35.406Z,10.27
2022-10-17T07:30:03.653Z,10.30
2022-10-17T07:32:36.028Z,10.33
2022-10-17T07:35:04.898Z,10.40
2022-10-17T07:37:33.796Z,10.50
2022-10-17T07:40:02.113Z,10.54
2022-10-17T07:42:30.088Z,10.58
2022-10-17T07:44:58.942Z,10.69
2022-10-17T07:47:31.431Z,10.81
2022-10-17T07:50:00.539Z,10.93
2022-10-17T07:52:28.488Z,11.01
2022-10-17T07:54:56.474Z,11.09
2022-10-17T07:57:24.272Z,11.14
2022-10-17T07:59:52.835Z,11.20
2022-10-17T08:02:26.008Z,11.27
2022-10-17T08:04:54.614Z,11.39
2022-10-17T08:07:26.784Z,11.51
2022-10-17T08:09:57.396Z,11.60
2022-10-17T08:12:26.228Z,11.68
2022-10-17T08:14:54.320Z,11.76
2022-10-17T08:17:22.112Z,11.85
2022-10-17T08:19:49.860Z,11.94
2022-10-17T08:22:17.987Z,12.01
2022-10-17T08:24:46.378Z,12.05
2022-10-17T08:27:14.453Z,12.08
2022-10-17T08:29:42.489Z,12.17
2022-10-17T08:32:10.476Z,12.26
2022-10-17T08:34:38.418Z,12.34
2022-10-17T08:37:06.316Z,12.50
2022-10-17T08:39:34.135Z,12.60
2022-10-17T08:42:52.715Z,12.67
2022-10-17T08:45:26.284Z,12.78
2022-10-17T08:48:12.637Z,12.86
2022-10-17T08:50:41.004Z,12.92
2022-10-17T08:53:20.936Z,13.01
2022-10-17T08:55:54.368Z,13.10
2022-10-17T08:58:24.892Z,13.20
2022-10-17T09:01:06.916Z,13.28
2022-10-17T09:03:51.574Z,13.35
2022-10-17T09:06:30.131Z,13.43
2022-10-17T09:09:22.720Z,13.46
2022-10-17T09:12:12.636Z,13.54
2022-10-17T09:14:46.420Z,13.63
2022-10-17T09:17:39.239Z,13.73
2022-10-17T09:20:21.599Z,13.83
2022-10-17T09:23:02.541Z,13.87
2022-10-17T09:25:35.341Z,13.94
2022-10-17T09:28:27.870Z,14.03
2022-10-17T09:31:04.678Z,14.05
2022-10-17T09:33:53.833Z,14.03
2022-10-17T09:36:33.622Z,14.05
2022-10-17T09:39:11.067Z,14.10
2022-10-17T09:41:47.209Z,14.16
2022-10-17T09:44:25.719Z,14.22
2022-10-17T09:47:18.211Z,14.27
2022-10-17T09:49:47.624Z,14.38
2022-10-17T09:52:39.713Z,14.49
2022-10-17T09:55:35.761Z,14.61
2022-10-17T09:58:05.901Z,14.74
2022-10-17T10:00:42.870Z,14.88
2022-10-17T10:03:13.827Z,15.01
2022-10-17T10:05:43.355Z,15.09
2022-10-17T10:08:16.948Z,15.17
2022-10-17T10:10:45.326Z,15.26
2022-10-17T10:13:13.100Z,15.41
2022-10-17T10:15:43.549Z,15.55
2022-10-17T10:18:26.759Z,15.67
2022-10-17T10:21:07.051Z,15.76
2022-10-17T10:23:40.136Z,15.86
2022-10-17T10:26:25.951Z,15.97
2022-10-17T10:29:01.926Z,16.12
2022-10-17T10:31:36.657Z,16.28
2022-10-17T10:34:29.071Z,16.30
2022-10-17T10:37:06.856Z,16.31
2022-10-17T10:39:40.077Z,16.43
2022-10-17T10:42:19.019Z,16.52
2022-10-17T10:44:48.716Z,16.60
2022-10-17T10:47:16.900Z,16.72
2022-10-17T10:49:45.092Z,16.76
2022-10-17T10:52:22.742Z,16.82
2022-10-17T10:55:25.961Z,16.87
2022-10-17T10:58:02.863Z,17.03
2022-10-17T11:00:34.551Z,17.20
2022-10-17T11:03:19.424Z,17.37
2022-10-17T11:05:58.464Z,17.46
2022-10-17T11:08:38.427Z,17.57
2022-10-17T11:11:47.935Z,17.70
2022-10-17T11:14:25.079Z,17.86
2022-10-17T11:17:05.593Z,17.97
2022-10-17T11:20:02.960Z,18.09
2022-10-17T11:22:42.172Z,18.19
2022-10-17T11:25:36.183Z,18.24
2022-10-17T11:28:11.279Z,18.35
2022-10-17T11:31:07.862Z,18.43
2022-10-17T11:34:07.131Z,18.49
2022-10-17T11:36:38.936Z,18.59
2022-10-17T11:39:23.972Z,18.59
2022-10-17T11:41:58.956Z,18.56
2022-10-17T11:44:36.506Z,18.58
2022-10-17T11:47:34.085Z,18.59
2022-10-17T11:53:20.728Z,18.73
2022-10-17T11:55:50.856Z,18.74
2022-10-17T11:58:55.425Z,18.81
2022-10-17T12:01:48.987Z,18.92
2022-10-17T12:04:47.635Z,19.02
2022-10-17T12:07:47.042Z,19.08
2022-10-17T12:10:33.597Z,19.15
2022-10-17T12:13:29.176Z,19.25
2022-10-17T12:16:18.052Z,19.34
2022-10-17T12:18:47.997Z,19.43
2022-10-17T12:21:16.107Z,19.52
2022-10-17T12:23:53.400Z,19.57
2022-10-17T12:26:27.905Z,19.59
2022-10-17T12:28:57.344Z,19.57
2022-10-17T12:31:33.366Z,19.59
2022-10-17T12:34:04.173Z,19.56
2022-10-17T12:36:32.022Z,19.59
2022-10-17T12:39:02.848Z,19.67
2022-10-17T12:41:39.617Z,19.70
2022-10-17T12:44:14.133Z,19.79
2022-10-17T12:46:51.314Z,19.88
2022-10-17T12:49:47.745Z,19.90
2022-10-17T12:52:15.557Z,19.91
2022-10-17T12:55:00.315Z,19.94
2022-10-17T12:57:43.590Z,19.96
2022-10-17T13:00:59.426Z,19.96
2022-10-17T13:03:41.468Z,20.03
2022-10-17T13:06:19.646Z,20.09
2022-10-17T13:08:56.146Z,20.08
2022-10-17T13:11:29.249Z,20.05
2022-10-17T13:14:00.813Z,20.03
2022-10-17T13:16:37.649Z,20.04
2022-10-17T13:19:17.913Z,20.05
2022-10-17T13:22:00.979Z,20.10
2022-10-17T13:24:35.177Z,20.13
2022-10-17T13:27:04.783Z,20.12
2022-10-17T13:29:33.254Z,20.07
2022-10-17T13:32:05.603Z,20.08
2022-10-17T13:34:34.119Z,20.08
2022-10-17T13:37:05.871Z,20.06
2022-10-17T13:39:55.676Z,20.08
2022-10-17T13:42:30.038Z,20.14
2022-10-17T13:44:59.334Z,20.10
2022-10-17T13:47:30.652Z,20.06
2022-10-17T13:49:59.551Z,20.04
2022-10-17T13:52:30.421Z,20.01
2022-10-17T13:55:17.598Z,19.98
2022-10-17T13:57:45.736Z,19.95
2022-10-17T14:00:22.928Z,19.93
2022-10-17T14:02:50.761Z,19.91
2022-10-17T14:05:20.700Z,19.86
2022-10-17T14:08:13.324Z,19.81
2022-10-17T14:10:43.535Z,19.77
2022-10-17T14:13:30.148Z,19.72
2022-10-17T14:16:04.389Z,19.70
2022-10-17T14:18:36.622Z,19.67
2022-10-17T14:24:14.593Z,19.57
2022-10-17T14:26:58.986Z,19.46
2022-10-17T14:29:32.698Z,19.34
2022-10-17T14:32:08.686Z,19.24
2022-10-17T14:34:38.983Z,19.12
2022-10-17T14:37:39.117Z,19.01
2022-10-17T14:40:08.057Z,18.88
2022-10-17T14:42:40.608Z,18.78
2022-10-17T14:45:14.683Z,18.71
2022-10-17T14:47:43.912Z,18.62
2022-10-17T14:50:12.032Z,18.53
2022-10-17T14:52:40.897Z,18.45
2022-10-17T14:55:27.224Z,18.34
2022-10-17T14:57:55.300Z,18.21
2022-10-17T15:00:24.362Z,18.07
2022-10-17T15:02:54.473Z,17.97
2022-10-17T15:05:23.496Z,17.88
2022-10-17T15:07:52.089Z,17.78
2022-10-17T15:10:34.319Z,17.70
2022-10-17T15:13:26.605Z,17.62
2022-10-17T15:15:52.471Z,17.52
2022-10-17T15:18:20.665Z,17.41
2022-10-17T15:20:55.292Z,17.32
2022-10-17T15:23:32.609Z,17.19
2022-10-17T15:26:01.210Z,17.07
2022-10-17T15:28:29.066Z,16.95
2022-10-17T15:30:56.877Z,16.78
2022-10-17T15:33:24.651Z,16.65
2022-10-17T15:35:52.437Z,16.54
2022-10-17T15:38:20.176Z,16.44
2022-10-17T15:40:50.963Z,16.33
2022-10-17T15:43:20.055Z,16.22
2022-10-17T15:45:48.654Z,16.10
2022-10-17T15:48:28.374Z,15.99
2022-10-17T15:50:56.621Z,15.89
2022-10-17T15:53:24.459Z,15.80
2022-10-17T15:55:52.357Z,15.71
2022-10-17T15:58:20.303Z,15.62
2022-10-17T16:00:48.842Z,15.52
2022-10-17T16:05:53.005Z,15.36
2022-10-17T16:08:20.880Z,15.26
2022-10-17T16:10:49.444Z,15.17
2022-10-17T16:13:23.286Z,15.09
2022-10-17T16:15:51.202Z,15.01
2022-10-17T16:18:20.171Z,14.93
2022-10-17T16:20:48.328Z,14.85
2022-10-17T16:23:16.129Z,14.75
2022-10-17T16:25:44.143Z,14.67
2022-10-17T16:28:12.177Z,14.62
2022-10-17T16:30:44.927Z,14.57
2022-10-17T16:33:13.145Z,14.49
2022-10-17T16:35:41.084Z,14.40
2022-10-17T16:38:08.843Z,14.30
2022-10-17T16:40:38.206Z,14.24
2022-10-17T16:43:06.430Z,14.20
2022-10-17T16:45:34.369Z,14.14
2022-10-17T16:48:02.368Z,14.10
2022-10-17T16:50:35.234Z,14.05
2022-10-17T16:53:03.973Z,14.01
2022-10-17T16:55:31.766Z,13.97
2022-10-17T16:58:00.244Z,13.94
2022-10-17T17:00:28.366Z,13.90
2022-10-17T17:02:56.269Z,13.87
2022-10-17T17:05:24.139Z,13.85
2022-10-17T17:07:52.026Z,13.82
2022-10-17T17:10:19.893Z,13.78
2022-10-17T17:12:47.736Z,13.75
2022-10-17T17:15:15.621Z,13.73
2022-10-17T17:17:53.624Z,13.70
2022-10-17T17:20:23.429Z,13.66
2022-10-17T17:22:52.429Z,13.64
2022-10-17T17:25:22.569Z,13.60
2022-10-17T17:27:50.553Z,13.54
2022-10-17T17:30:18.616Z,13.48
2022-10-17T17:32:46.506Z,13.42
2022-10-17T17:35:14.296Z,13.37
2022-10-17T17:37:42.104Z,13.29
2022-10-17T17:40:10.474Z,13.23
2022-10-17T17:42:38.368Z,13.17
2022-10-17T17:45:06.816Z,13.11
2022-10-17T17:47:34.645Z,13.08
2022-10-17T17:50:03.420Z,13.06
2022-10-17T17:52:31.386Z,13.05
2022-10-17T17:54:59.490Z,13.01
2022-10-17T17:57:30.215Z,12.94
2022-10-17T17:59:58.217Z,12.91
2022-10-17T18:02:26.024Z,12.88
2022-10-17T18:04:53.813Z,12.83
2022-10-17T18:07:22.049Z,12.77
2022-10-17T18:09:51.904Z,12.70
2022-10-17T18:12:19.861Z,12.64
2022-10-17T18:14:48.206Z,12.58
2022-10-17T18:17:16.058Z,12.52
2022-10-17T18:19:43.916Z,12.47
2022-10-17T18:22:11.746Z,12.43
2022-10-17T18:24:39.548Z,12.38
2022-10-17T18:27:07.624Z,12.33
2022-10-17T18:29:35.809Z,12.31
2022-10-17T18:32:03.983Z,12.28
2022-10-17T18:34:31.824Z,12.26
2022-10-17T18:37:00.081Z,12.24
2022-10-17T18:39:28.096Z,12.22
2022-10-17T18:41:55.905Z,12.19
2022-10-17T18:44:24.086Z,12.17
2022-10-17T18:46:52.700Z,12.17
2022-10-17T18:49:24.971Z,12.16
2022-10-17T18:51:52.782Z,12.14
2022-10-17T18:54:22.813Z,12.13
2022-10-17T18:56:52.605Z,12.12
2022-10-17T18:59:21.260Z,12.13
2022-10-17T19:01:49.651Z,12.13
2022-10-17T19:04:17.871Z,12.11
2022-10-17T19:06:45.868Z,12.07
2022-10-17T19:09:15.114Z,12.01
2022-10-17T19:11:43.331Z,11.96
2022-10-17T19:14:15.688Z,11.90
2022-10-17T19:16:49.443Z,11.85
2022-10-17T19:19:23.183Z,11.82
2022-10-17T19:21:51.858Z,11.78
2022-10-17T19:24:25.276Z,11.75
2022-10-17T19:26:55.138Z,11.74
2022-10-17T19:29:28.163Z,11.73
2022-10-17T19:34:28.896Z,11.65
2022-10-17T19:36:57.172Z,11.60
2022-10-17T19:39:26.593Z,11.55
2022-10-17T19:41:54.584Z,11.49
2022-10-17T19:44:22.795Z,11.45
2022-10-17T19:46:51.116Z,11.39
2022-10-17T19:49:19.300Z,11.33
2022-10-17T19:51:47.204Z,11.27
2022-10-17T19:54:18.448Z,11.23
2022-10-17T19:56:46.574Z,11.17
2022-10-17T19:59:16.421Z,11.11
2022-10-17T20:01:45.254Z,11.05
2022-10-17T20:04:13.899Z,11.01
2022-10-17T20:06:42.086Z,10.97
2022-10-17T20:09:15.635Z,10.93
2022-10-17T20:11:45.066Z,10.87
2022-10-17T20:14:13.141Z,10.82
2022-10-17T20:16:41.612Z,10.76
2022-10-17T20:19:11.941Z,10.71
2022-10-17T20:21:40.532Z,10.66
2022-10-17T20:24:12.214Z,10.61
2022-10-17T20:26:40.841Z,10.58
2022-10-17T20:29:13.367Z,10.55
2022-10-17T20:31:43.615Z,10.53
2022-10-17T20:34:14.088Z,10.52
2022-10-17T20:36:42.006Z,10.53
2022-10-17T20:39:12.294Z,10.55
2022-10-17T20:41:40.882Z,10.55
2022-10-17T20:44:09.229Z,10.55
2022-10-17T20:46:39.746Z,10.56
2022-10-17T20:49:16.535Z,10.56
2022-10-17T20:51:45.081Z,10.56
2022-10-17T20:54:13.148Z,10.58
2022-10-17T20:56:41.066Z,10.60
2022-10-17T20:59:12.728Z,10.62
2022-10-17T21:01:40.740Z,10.64
2022-10-17T21:04:40.334Z,10.63
2022-10-17T21:06:56.897Z,10.64
2022-10-17T21:09:25.075Z,10.62
2022-10-17T21:11:55.704Z,10.58
2022-10-17T21:14:24.969Z,10.54
2022-10-17T21:16:52.826Z,10.51
2022-10-17T21:19:21.819Z,10.50
2022-10-17T21:21:49.996Z,10.47
2022-10-17T21:24:20.788Z,10.44
2022-10-17T21:26:55.694Z,10.36
2022-10-17T21:29:24.136Z,10.30
2022-10-17T21:31:52.908Z,10.27
2022-10-17T21:34:25.160Z,10.21
2022-10-17T21:36:53.416Z,10.14
2022-10-17T21:39:22.128Z,10.05
2022-10-17T21:41:49.974Z,9.98
2022-10-17T21:44:20.852Z,9.93
2022-10-17T21:46:49.810Z,9.85
2022-10-17T21:49:20.335Z,9.77
2022-10-17T21:51:49.165Z,9.72
2022-10-17T21:54:18.495Z,9.68
2022-10-17T21:56:46.307Z,9.63
2022-10-17T21:59:14.150Z,9.60
2022-10-17T22:01:44.516Z,9.55
2022-10-17T22:04:15.104Z,9.53
2022-10-17T22:06:45.095Z,9.49
2022-10-17T22:09:16.412Z,9.44
2022-10-17T22:11:48.274Z,9.41
2022-10-17T22:14:18.343Z,9.37
2022-10-17T22:16:47.955Z,9.33
2022-10-17T22:19:19.443Z,9.28
2022-10-17T22:21:47.419Z,9.22
2022-10-17T22:24:17.683Z,9.18
2022-10-17T22:26:46.639Z,9.12
2022-10-17T22:29:14.611Z,9.06
2022-10-17T22:31:42.837Z,9.02
2022-10-17T22:34:13.494Z,8.97
2022-10-17T22:36:42.097Z,8.94
2022-10-17T22:39:10.863Z,8.94
2022-10-17T22:41:38.633Z,8.92
2022-10-17T22:44:06.917Z,8.90
2022-10-17T22:46:34.797Z,8.88
2022-10-17T22:49:03.411Z,8.87
2022-10-17T22:51:32.619Z,8.89
2022-10-17T22:54:00.832Z,8.92
2022-10-17T22:56:28.717Z,8.94
2022-10-17T22:58:56.636Z,8.98
2022-10-17T23:01:25.902Z,9.01
2022-10-17T23:03:54.105Z,9.02
2022-10-17T23:06:22.248Z,9.06
2022-10-17T23:08:50.213Z,9.13
2022-10-17T23:11:18.070Z,9.15
2022-10-17T23:13:46.082Z,9.14
2022-10-17T23:16:13.895Z,9.15
2022-10-17T23:18:42.362Z,9.17
2022-10-17T23:21:10.455Z,9.23
2022-10-17T23:23:38.496Z,9.26
2022-10-17T23:26:09.442Z,9.29
2022-10-17T23:28:38.107Z,9.31
2022-10-17T23:31:20.176Z,9.33
2022-10-17T23:33:49.756Z,9.31
2022-10-17T23:36:19.979Z,9.27
2022-10-17T23:38:48.372Z,9.28
2022-10-17T23:41:16.828Z,9.28
2022-10-17T23:43:44.680Z,9.27
2022-10-17T23:46:12.917Z,9.22
2022-10-17T23:48:41.118Z,9.16
2022-10-17T23:51:10.270Z,9.11
2022-10-17T23:53:39.353Z,9.03
2022-10-17T23:56:08.494Z,8.96
2022-10-17T23:58:37.524Z,8.89
